createdAt,value
2022-07-28T00:00:34.833Z,100.00
2022-07-28T00:05:38.657Z,100.00
2022-07-28T00:10:46.733Z,100.00
2022-07-28T00:15:50.289Z,100.00
2022-07-28T00:20:53.811Z,100.00
2022-07-28T00:25:57.124Z,100.00
2022-07-28T00:31:05.131Z,100.00
2022-07-28T00:36:12.669Z,100.00
2022-07-28T00:41:17.496Z,100.00
2022-07-28T00:46:23.483Z,100.00
2022-07-28T00:51:28.028Z,100.00
2022-07-28T00:56:32.670Z,100.00
2022-07-28T01:01:36.421Z,100.00
2022-07-28T01:07:24.974Z,100.00
2022-07-28T01:12:46.618Z,100.00
2022-07-28T01:18:01.759Z,100.00
2022-07-28T01:23:42.259Z,100.00
2022-07-28T01:29:04.335Z,100.00
2022-07-28T01:34:12.037Z,100.00
2022-07-28T01:39:17.219Z,100.00
2022-07-28T01:44:25.589Z,100.00
2022-07-28T01:49:30.668Z,100.00
2022-07-28T01:54:38.969Z,100.00
2022-07-28T01:59:43.591Z,100.00
2022-07-28T02:04:49.161Z,100.00
2022-07-28T02:09:55.474Z,100.00
2022-07-28T02:15:00.439Z,100.00
2022-07-28T02:20:07.038Z,100.00
2022-07-28T02:25:11.049Z,100.00
2022-07-28T02:30:23.104Z,100.00
2022-07-28T02:35:29.124Z,100.00
2022-07-28T02:40:38.656Z,100.00
2022-07-28T02:45:48.176Z,100.00
2022-07-28T02:50:56.150Z,100.00
2022-07-28T02:55:59.963Z,100.00
2022-07-28T03:01:03.831Z,100.00
2022-07-28T03:06:07.407Z,100.00
2022-07-28T03:11:12.435Z,100.00
2022-07-28T03:16:19.000Z,100.00
2022-07-28T03:21:23.900Z,100.00
2022-07-28T03:26:54.310Z,100.00
2022-07-28T03:31:59.397Z,100.00
2022-07-28T03:37:16.706Z,100.00
2022-07-28T03:42:21.833Z,100.00
2022-07-28T03:47:25.737Z,100.00
2022-07-28T03:52:29.506Z,100.00
2022-07-28T03:57:32.950Z,100.00
2022-07-28T04:02:36.544Z,100.00
2022-07-28T04:07:41.588Z,100.00
2022-07-28T04:12:53.195Z,100.00
2022-07-28T04:17:57.220Z,100.00
2022-07-28T04:23:01.846Z,100.00
2022-07-28T04:28:05.992Z,100.00
2022-07-28T04:33:09.661Z,100.00
2022-07-28T04:38:15.790Z,100.00
2022-07-28T04:43:22.907Z,100.00
2022-07-28T04:48:26.765Z,100.00
2022-07-28T04:53:32.181Z,100.00
2022-07-28T04:58:36.982Z,100.00
2022-07-28T05:03:41.856Z,100.00
2022-07-28T05:08:46.319Z,100.00
2022-07-28T05:13:50.751Z,100.00
2022-07-28T05:18:55.089Z,100.00
2022-07-28T05:23:59.762Z,100.00
2022-07-28T05:29:04.414Z,100.00
2022-07-28T05:34:08.831Z,100.00
2022-07-28T05:39:12.811Z,100.00
2022-07-28T05:44:16.378Z,100.00
2022-07-28T05:49:19.767Z,100.00
2022-07-28T05:54:22.872Z,100.00
2022-07-28T05:59:25.948Z,100.00
2022-07-28T06:04:32.227Z,100.00
2022-07-28T06:09:39.720Z,100.00
2022-07-28T06:14:45.037Z,100.00
2022-07-28T06:19:48.133Z,100.00
2022-07-28T06:24:51.217Z,100.00
2022-07-28T06:29:54.569Z,100.00
2022-07-28T06:34:57.861Z,100.00
2022-07-28T06:40:03.188Z,100.00
2022-07-28T06:45:10.039Z,100.00
2022-07-28T06:50:26.999Z,100.00
2022-07-28T06:55:35.426Z,100.00
2022-07-28T07:00:39.117Z,100.00
2022-07-28T07:05:42.233Z,100.00
2022-07-28T07:10:47.892Z,100.00
2022-07-28T07:15:51.810Z,100.00
2022-07-28T07:20:55.532Z,100.00
2022-07-28T07:25:58.677Z,100.00
2022-07-28T07:31:01.763Z,100.00
2022-07-28T07:36:05.074Z,100.00
2022-07-28T07:41:08.316Z,100.00
2022-07-28T07:46:11.473Z,100.00
2022-07-28T07:51:15.721Z,100.00
2022-07-28T07:56:19.272Z,99.65
2022-07-28T08:01:22.451Z,100.00
2022-07-28T08:06:26.629Z,94.67
2022-07-28T08:11:30.102Z,85.36
2022-07-28T08:16:33.270Z,82.52
2022-07-28T08:21:36.427Z,77.93
2022-07-28T08:26:39.660Z,73.99
2022-07-28T08:31:42.854Z,74.42
2022-07-28T08:36:45.948Z,72.38
2022-07-28T08:42:12.951Z,69.91
2022-07-28T08:47:17.331Z,67.60
2022-07-28T08:52:22.498Z,65.96
2022-07-28T08:57:32.796Z,63.38
2022-07-28T09:02:42.092Z,59.97
2022-07-28T09:07:54.029Z,60.69
2022-07-28T09:12:57.861Z,61.14
2022-07-28T09:18:01.031Z,59.58
2022-07-28T09:23:42.516Z,60.39
2022-07-28T09:28:31.342Z,57.69
2022-07-28T09:33:41.309Z,54.91
2022-07-28T09:38:47.896Z,59.37
2022-07-28T09:43:55.342Z,54.63
2022-07-28T09:49:01.966Z,54.82
2022-07-28T09:54:13.659Z,50.04
2022-07-28T09:59:18.949Z,52.22
2022-07-28T10:04:39.860Z,49.15
2022-07-28T10:09:43.066Z,47.63
2022-07-28T10:14:48.277Z,46.41
2022-07-28T10:19:52.943Z,46.22
2022-07-28T10:24:58.445Z,48.06
2022-07-28T10:30:05.244Z,45.84
2022-07-28T10:35:17.004Z,45.42
2022-07-28T10:40:27.489Z,48.55
2022-07-28T10:45:55.117Z,49.48
2022-07-28T10:50:58.338Z,41.36
2022-07-28T10:56:06.529Z,44.69
2022-07-28T11:01:17.103Z,44.74
2022-07-28T11:06:46.785Z,41.52
2022-07-28T11:11:55.966Z,45.27
2022-07-28T11:17:01.647Z,41.15
2022-07-28T11:22:19.987Z,42.60
2022-07-28T11:27:45.310Z,40.74
2022-07-28T11:32:51.313Z,40.06
2022-07-28T11:38:03.751Z,44.60
2022-07-28T11:43:25.993Z,39.07
2022-07-28T11:48:43.081Z,41.17
2022-07-28T11:53:53.861Z,41.81
2022-07-28T11:58:58.680Z,42.34
2022-07-28T12:04:10.444Z,39.33
2022-07-28T12:09:25.131Z,40.46
2022-07-28T12:14:34.859Z,39.71
2022-07-28T12:19:40.480Z,40.78
2022-07-28T12:24:45.710Z,40.65
2022-07-28T12:30:03.011Z,44.00
2022-07-28T12:35:06.371Z,39.94
2022-07-28T12:40:13.492Z,39.76
2022-07-28T12:45:16.660Z,40.48
2022-07-28T12:50:20.740Z,39.29
2022-07-28T12:55:27.919Z,38.98
2022-07-28T13:00:36.689Z,38.31
2022-07-28T13:05:59.382Z,39.51
2022-07-28T13:11:07.312Z,39.61
2022-07-28T13:16:20.007Z,43.30
2022-07-28T13:21:56.904Z,41.70
2022-07-28T13:27:03.361Z,43.78
2022-07-28T13:32:06.962Z,40.96
2022-07-28T13:37:10.271Z,41.40
2022-07-28T13:42:13.372Z,42.07
2022-07-28T13:47:17.267Z,41.99
2022-07-28T13:52:32.703Z,42.78
2022-07-28T13:57:38.058Z,42.29
2022-07-28T14:02:46.729Z,40.93
2022-07-28T14:07:50.104Z,42.65
2022-07-28T14:12:53.063Z,43.76
2022-07-28T14:17:57.136Z,42.16
2022-07-28T14:23:00.185Z,39.72
2022-07-28T14:28:03.225Z,42.84
2022-07-28T14:33:07.191Z,43.49
2022-07-28T14:43:36.024Z,40.17
2022-07-28T14:48:40.422Z,40.90
2022-07-28T14:53:50.057Z,42.70
2022-07-28T14:58:55.455Z,42.58
2022-07-28T15:03:58.613Z,40.52
2022-07-28T15:09:02.925Z,39.92
2022-07-28T15:14:05.865Z,41.89
2022-07-28T15:19:09.523Z,40.50
2022-07-28T15:24:12.855Z,41.66
2022-07-28T15:29:19.096Z,41.58
2022-07-28T15:34:24.798Z,42.03
2022-07-28T15:39:30.886Z,42.12
2022-07-28T15:44:34.850Z,41.55
2022-07-28T15:49:37.924Z,40.57
2022-07-28T15:54:41.880Z,42.87
2022-07-28T15:59:49.304Z,40.96
2022-07-28T16:04:54.600Z,41.46
2022-07-28T16:09:58.103Z,42.53
2022-07-28T16:15:01.354Z,43.15
2022-07-28T16:20:05.974Z,46.01
2022-07-28T16:25:20.571Z,42.99
2022-07-28T16:30:23.642Z,44.28
2022-07-28T16:35:27.090Z,44.21
2022-07-28T16:40:31.253Z,45.59
2022-07-28T16:45:36.748Z,44.45
2022-07-28T16:50:39.914Z,46.60
2022-07-28T16:55:43.377Z,45.68
2022-07-28T17:00:47.918Z,46.94
2022-07-28T17:05:54.184Z,45.77
2022-07-28T17:10:57.595Z,46.96
2022-07-28T17:16:03.687Z,48.19
2022-07-28T17:21:07.208Z,46.48
2022-07-28T17:31:33.802Z,49.74
2022-07-28T17:36:38.406Z,49.23
2022-07-28T17:41:44.425Z,50.10
2022-07-28T17:46:48.884Z,47.15
2022-07-28T17:51:52.300Z,49.42
2022-07-28T17:56:57.495Z,52.66
2022-07-28T18:02:01.953Z,52.42
2022-07-28T18:07:05.147Z,55.91
2022-07-28T18:12:11.719Z,57.58
2022-07-28T18:17:14.675Z,61.64
2022-07-28T18:22:17.912Z,65.67
2022-07-28T18:27:20.926Z,67.62
2022-07-28T18:32:24.094Z,70.98
2022-07-28T18:37:30.952Z,66.66
2022-07-28T18:42:34.621Z,69.78
2022-07-28T18:47:47.338Z,66.16
2022-07-28T18:52:51.340Z,69.25
2022-07-28T18:57:54.731Z,71.36
2022-07-28T19:02:58.089Z,74.45
2022-07-28T19:08:01.271Z,74.08
2022-07-28T19:13:05.330Z,86.05
2022-07-28T19:18:12.351Z,81.35
2022-07-28T19:57:12.079Z,79.14
2022-07-28T20:02:17.085Z,86.48
2022-07-28T20:07:20.292Z,82.23
2022-07-28T20:12:23.259Z,78.95
2022-07-28T20:17:37.929Z,88.10
2022-07-28T20:22:42.992Z,93.23
2022-07-28T20:27:46.302Z,95.50
2022-07-28T20:32:49.760Z,100.00
2022-07-28T20:37:52.911Z,100.00
2022-07-28T20:42:56.044Z,100.00
2022-07-28T20:47:59.105Z,100.00
2022-07-28T20:53:10.349Z,100.00
2022-07-28T20:58:13.995Z,100.00
2022-07-28T21:03:17.592Z,100.00
2022-07-28T21:08:20.562Z,100.00
2022-07-28T21:13:24.617Z,100.00
2022-07-28T21:18:27.632Z,100.00
2022-07-28T21:23:31.102Z,100.00
2022-07-28T21:28:52.824Z,100.00
2022-07-28T21:33:56.174Z,100.00
2022-07-28T21:38:59.745Z,100.00
2022-07-28T21:44:04.209Z,100.00
2022-07-28T21:49:07.712Z,83.12
2022-07-28T21:54:10.783Z,70.36
2022-07-28T21:59:13.815Z,67.70
2022-07-28T22:04:17.439Z,66.17
2022-07-28T22:09:24.008Z,63.79
2022-07-28T22:14:32.928Z,64.75
2022-07-28T22:19:36.582Z,66.82
2022-07-28T22:24:39.497Z,66.65
2022-07-28T22:29:49.943Z,68.94
2022-07-28T22:34:55.078Z,68.77
2022-07-28T22:39:58.438Z,69.65
2022-07-28T22:45:01.959Z,73.02
2022-07-28T22:50:09.912Z,78.86
2022-07-28T22:55:12.857Z,79.64
2022-07-28T23:00:20.418Z,80.16
2022-07-28T23:05:24.627Z,80.78
2022-07-28T23:10:30.309Z,79.60
2022-07-28T23:15:41.375Z,80.54
2022-07-28T23:20:45.735Z,80.97
2022-07-28T23:25:48.733Z,80.72
2022-07-28T23:30:52.490Z,84.03
2022-07-28T23:35:55.912Z,83.34
2022-07-28T23:41:02.007Z,83.87
2022-07-28T23:46:05.357Z,86.81
2022-07-28T23:51:08.647Z,87.27
2022-07-28T23:56:11.996Z,86.92
